sensor_id;sensor_type;location;lat;lon;timestamp;pressure;altitude;pressure_sealevel;temperature;humidity
17607;BME280;69222;52.242;20.980;2023-08-08T00:00:22;99413.34;;;15.68;72.43
17607;BME280;69222;52.242;20.980;2023-08-08T00:02:49;99414.19;;;15.69;72.17
17607;BME280;69222;52.242;20.980;2023-08-08T00:05:18;99420.34;;;15.66;71.98
17607;BME280;69222;52.242;20.980;2023-08-08T00:07:47;99424.56;;;15.69;71.81
17607;BME280;69222;52.242;20.980;2023-08-08T00:10:15;99415.16;;;15.66;70.88
17607;BME280;69222;52.242;20.980;2023-08-08T00:12:43;99434.97;;;15.69;70.31
17607;BME280;69222;52.242;20.980;2023-08-08T00:15:11;99426.25;;;15.70;70.06
17607;BME280;69222;52.242;20.980;2023-08-08T00:17:39;99436.75;;;15.67;69.83
17607;BME280;69222;52.242;20.980;2023-08-08T00:20:08;99436.84;;;15.64;69.36
17607;BME280;69222;52.242;20.980;2023-08-08T00:22:36;99433.50;;;15.62;69.09
17607;BME280;69222;52.242;20.980;2023-08-08T00:25:06;99436.09;;;15.62;68.93
17607;BME280;69222;52.242;20.980;2023-08-08T00:27:35;99447.38;;;15.61;69.10
17607;BME280;69222;52.242;20.980;2023-08-08T00:30:09;99448.38;;;15.58;68.61
17607;BME280;69222;52.242;20.980;2023-08-08T00:32:37;99454.41;;;15.59;68.03
17607;BME280;69222;52.242;20.980;2023-08-08T00:35:06;99466.47;;;15.60;68.06
17607;BME280;69222;52.242;20.980;2023-08-08T00:37:34;99444.84;;;15.59;67.41
17607;BME280;69222;52.242;20.980;2023-08-08T00:40:02;99456.06;;;15.60;66.50
17607;BME280;69222;52.242;20.980;2023-08-08T00:42:32;99464.81;;;15.57;66.84
17607;BME280;69222;52.242;20.980;2023-08-08T00:45:01;99462.53;;;15.50;66.90
17607;BME280;69222;52.242;20.980;2023-08-08T00:47:31;99464.50;;;15.44;66.81
17607;BME280;69222;52.242;20.980;2023-08-08T00:50:00;99463.69;;;15.42;66.69
17607;BME280;69222;52.242;20.980;2023-08-08T00:52:29;99478.44;;;15.42;66.85
17607;BME280;69222;52.242;20.980;2023-08-08T00:54:58;99477.72;;;15.38;66.55
17607;BME280;69222;52.242;20.980;2023-08-08T00:57:28;99488.22;;;15.35;66.69
17607;BME280;69222;52.242;20.980;2023-08-08T00:59:58;99478.72;;;15.36;66.79
17607;BME280;69222;52.242;20.980;2023-08-08T01:02:26;99486.53;;;15.34;66.59
17607;BME280;69222;52.242;20.980;2023-08-08T01:04:54;99493.41;;;15.35;66.29
17607;BME280;69222;52.242;20.980;2023-08-08T01:07:30;99492.53;;;15.36;66.25
17607;BME280;69222;52.242;20.980;2023-08-08T01:10:04;99492.72;;;15.32;66.38
17607;BME280;69222;52.242;20.980;2023-08-08T01:12:37;99495.47;;;15.27;67.14
17607;BME280;69222;52.242;20.980;2023-08-08T01:15:09;99486.00;;;15.26;66.58
17607;BME280;69222;52.242;20.980;2023-08-08T01:17:38;99499.22;;;15.20;67.00
17607;BME280;69222;52.242;20.980;2023-08-08T01:20:07;99495.16;;;15.13;67.21
17607;BME280;69222;52.242;20.980;2023-08-08T01:22:39;99502.13;;;15.12;67.36
17607;BME280;69222;52.242;20.980;2023-08-08T01:25:09;99508.16;;;15.13;67.51
17607;BME280;69222;52.242;20.980;2023-08-08T01:27:38;99511.75;;;15.09;67.59
17607;BME280;69222;52.242;20.980;2023-08-08T01:30:07;99515.38;;;15.05;67.20
17607;BME280;69222;52.242;20.980;2023-08-08T01:32:36;99519.81;;;15.03;67.28
17607;BME280;69222;52.242;20.980;2023-08-08T01:35:05;99521.59;;;15.01;67.59
17607;BME280;69222;52.242;20.980;2023-08-08T01:37:36;99520.22;;;14.92;67.58
17607;BME280;69222;52.242;20.980;2023-08-08T01:40:10;99525.44;;;14.90;67.79
17607;BME280;69222;52.242;20.980;2023-08-08T01:42:41;99522.06;;;14.88;67.89
17607;BME280;69222;52.242;20.980;2023-08-08T01:45:10;99519.38;;;14.91;67.61
17607;BME280;69222;52.242;20.980;2023-08-08T01:47:39;99531.66;;;14.86;67.55
17607;BME280;69222;52.242;20.980;2023-08-08T01:50:09;99536.94;;;14.83;67.75
17607;BME280;69222;52.242;20.980;2023-08-08T01:52:37;99537.69;;;14.87;67.57
17607;BME280;69222;52.242;20.980;2023-08-08T01:55:06;99534.97;;;14.90;67.42
17607;BME280;69222;52.242;20.980;2023-08-08T01:57:35;99536.78;;;14.88;67.52
17607;BME280;69222;52.242;20.980;2023-08-08T02:00:05;99534.31;;;14.85;67.11
17607;BME280;69222;52.242;20.980;2023-08-08T02:02:33;99539.38;;;14.88;67.04
17607;BME280;69222;52.242;20.980;2023-08-08T02:05:02;99536.16;;;14.81;66.97
17607;BME280;69222;52.242;20.980;2023-08-08T02:07:30;99542.97;;;14.84;67.29
17607;BME280;69222;52.242;20.980;2023-08-08T02:09:58;99541.41;;;14.80;67.37
17607;BME280;69222;52.242;20.980;2023-08-08T02:12:26;99535.53;;;14.74;66.64
17607;BME280;69222;52.242;20.980;2023-08-08T02:14:57;99539.19;;;14.69;66.83
17607;BME280;69222;52.242;20.980;2023-08-08T02:17:25;99552.13;;;14.70;67.00
17607;BME280;69222;52.242;20.980;2023-08-08T02:19:53;99560.91;;;14.66;66.65
17607;BME280;69222;52.242;20.980;2023-08-08T02:22:22;99564.63;;;14.59;67.04
17607;BME280;69222;52.242;20.980;2023-08-08T02:24:50;99570.72;;;14.58;66.74
17607;BME280;69222;52.242;20.980;2023-08-08T02:27:18;99571.59;;;14.57;66.92
17607;BME280;69222;52.242;20.980;2023-08-08T02:29:46;99560.28;;;14.60;66.77
17607;BME280;69222;52.242;20.980;2023-08-08T02:32:15;99569.75;;;14.61;66.52
17607;BME280;69222;52.242;20.980;2023-08-08T02:34:43;99577.59;;;14.59;66.69
17607;BME280;69222;52.242;20.980;2023-08-08T02:37:11;99583.81;;;14.54;66.97
17607;BME280;69222;52.242;20.980;2023-08-08T02:39:39;99578.78;;;14.49;67.14
17607;BME280;69222;52.242;20.980;2023-08-08T02:42:07;99594.50;;;14.44;67.19
17607;BME280;69222;52.242;20.980;2023-08-08T02:44:35;99592.00;;;14.41;67.08
17607;BME280;69222;52.242;20.980;2023-08-08T02:47:03;99589.41;;;14.41;67.15
17607;BME280;69222;52.242;20.980;2023-08-08T02:49:33;99581.84;;;14.35;67.20
17607;BME280;69222;52.242;20.980;2023-08-08T02:52:01;99590.63;;;14.31;67.33
17607;BME280;69222;52.242;20.980;2023-08-08T02:54:29;99588.25;;;14.25;66.88
17607;BME280;69222;52.242;20.980;2023-08-08T02:56:57;99592.53;;;14.26;67.50
17607;BME280;69222;52.242;20.980;2023-08-08T02:59:25;99600.25;;;14.27;67.05
17607;BME280;69222;52.242;20.980;2023-08-08T03:01:53;99607.25;;;14.25;67.05
17607;BME280;69222;52.242;20.980;2023-08-08T03:04:21;99604.75;;;14.22;66.99
17607;BME280;69222;52.242;20.980;2023-08-08T03:06:51;99607.25;;;14.25;66.29
17607;BME280;69222;52.242;20.980;2023-08-08T03:09:19;99603.84;;;14.23;66.53
17607;BME280;69222;52.242;20.980;2023-08-08T03:11:47;99616.88;;;14.22;66.24
17607;BME280;69222;52.242;20.980;2023-08-08T03:14:15;99622.88;;;14.22;66.21
17607;BME280;69222;52.242;20.980;2023-08-08T03:16:43;99629.91;;;14.19;66.18
17607;BME280;69222;52.242;20.980;2023-08-08T03:19:11;99638.47;;;14.21;66.29
17607;BME280;69222;52.242;20.980;2023-08-08T03:21:40;99635.13;;;14.17;65.92
17607;BME280;69222;52.242;20.980;2023-08-08T03:24:09;99630.06;;;14.14;66.05
17607;BME280;69222;52.242;20.980;2023-08-08T03:26:37;99643.06;;;14.13;66.33
17607;BME280;69222;52.242;20.980;2023-08-08T03:29:05;99638.72;;;14.13;66.27
17607;BME280;69222;52.242;20.980;2023-08-08T03:31:36;99639.69;;;14.11;66.34
17607;BME280;69222;52.242;20.980;2023-08-08T03:34:04;99645.00;;;14.06;66.58
17607;BME280;69222;52.242;20.980;2023-08-08T03:36:32;99644.25;;;14.02;66.62
17607;BME280;69222;52.242;20.980;2023-08-08T03:39:00;99650.19;;;14.06;66.60
17607;BME280;69222;52.242;20.980;2023-08-08T03:41:31;99651.06;;;14.07;66.35
17607;BME280;69222;52.242;20.980;2023-08-08T03:43:59;99650.25;;;14.05;66.42
17607;BME280;69222;52.242;20.980;2023-08-08T03:46:29;99657.19;;;14.02;66.29
17607;BME280;69222;52.242;20.980;2023-08-08T03:48:57;99671.06;;;14.01;66.32
17607;BME280;69222;52.242;20.980;2023-08-08T03:51:25;99653.00;;;13.98;66.72
17607;BME280;69222;52.242;20.980;2023-08-08T03:53:53;99674.66;;;13.97;66.69
17607;BME280;69222;52.242;20.980;2023-08-08T03:56:21;99677.22;;;13.97;66.82
17607;BME280;69222;52.242;20.980;2023-08-08T03:58:50;99684.16;;;13.97;66.92
17607;BME280;69222;52.242;20.980;2023-08-08T04:01:18;99686.06;;;13.92;66.81
17607;BME280;69222;52.242;20.980;2023-08-08T04:03:47;99683.34;;;13.95;67.17
17607;BME280;69222;52.242;20.980;2023-08-08T04:06:15;99688.41;;;13.99;66.98
17607;BME280;69222;52.242;20.980;2023-08-08T04:08:43;99694.22;;;14.06;66.24
17607;BME280;69222;52.242;20.980;2023-08-08T04:11:11;99696.72;;;14.09;65.96
17607;BME280;69222;52.242;20.980;2023-08-08T04:13:39;99702.66;;;14.13;66.07
17607;BME280;69222;52.242;20.980;2023-08-08T04:16:08;99703.47;;;14.15;66.05
17607;BME280;69222;52.242;20.980;2023-08-08T04:18:36;99715.66;;;14.11;66.30
17607;BME280;69222;52.242;20.980;2023-08-08T04:21:04;99711.38;;;14.10;66.31
17607;BME280;69222;52.242;20.980;2023-08-08T04:23:32;99718.03;;;14.17;66.42
17607;BME280;69222;52.242;20.980;2023-08-08T04:26:00;99716.94;;;14.26;65.47
17607;BME280;69222;52.242;20.980;2023-08-08T04:28:28;99721.91;;;14.32;65.52
17607;BME280;69222;52.242;20.980;2023-08-08T04:30:56;99716.53;;;14.38;65.08
17607;BME280;69222;52.242;20.980;2023-08-08T04:33:26;99719.13;;;14.38;64.85
17607;BME280;69222;52.242;20.980;2023-08-08T04:35:53;99721.69;;;14.40;64.93
17607;BME280;69222;52.242;20.980;2023-08-08T04:38:22;99718.13;;;14.42;65.10
17607;BME280;69222;52.242;20.980;2023-08-08T04:40:50;99720.50;;;14.50;64.98
17607;BME280;69222;52.242;20.980;2023-08-08T04:43:18;99724.53;;;14.59;64.62
17607;BME280;69222;52.242;20.980;2023-08-08T04:45:46;99732.00;;;14.68;64.47
17607;BME280;69222;52.242;20.980;2023-08-08T04:48:14;99724.78;;;14.78;64.25
17607;BME280;69222;52.242;20.980;2023-08-08T04:50:43;99729.72;;;14.84;63.45
17607;BME280;69222;52.242;20.980;2023-08-08T04:53:13;99732.28;;;14.85;63.88
17607;BME280;69222;52.242;20.980;2023-08-08T04:55:41;99739.75;;;14.94;63.45
17607;BME280;69222;52.242;20.980;2023-08-08T04:58:09;99736.16;;;14.98;63.36
17607;BME280;69222;52.242;20.980;2023-08-08T05:00:37;99735.03;;;15.06;63.16
17607;BME280;69222;52.242;20.980;2023-08-08T05:03:05;99742.50;;;15.15;62.74
17607;BME280;69222;52.242;20.980;2023-08-08T05:05:33;99752.78;;;15.18;61.94
17607;BME280;69222;52.242;20.980;2023-08-08T05:08:03;99747.88;;;15.10;62.14
17607;BME280;69222;52.242;20.980;2023-08-08T05:10:31;99758.50;;;15.03;62.46
17607;BME280;69222;52.242;20.980;2023-08-08T05:12:59;99758.72;;;14.96;62.76
17607;BME280;69222;52.242;20.980;2023-08-08T05:15:27;99753.69;;;14.92;63.22
17607;BME280;69222;52.242;20.980;2023-08-08T05:17:55;99746.78;;;14.91;62.93
17607;BME280;69222;52.242;20.980;2023-08-08T05:20:23;99764.00;;;14.93;63.33
17607;BME280;69222;52.242;20.980;2023-08-08T05:22:52;99750.19;;;14.93;62.87
17607;BME280;69222;52.242;20.980;2023-08-08T05:25:21;99746.38;;;15.03;62.90
17607;BME280;69222;52.242;20.980;2023-08-08T05:27:49;99762.59;;;15.10;62.53
17607;BME280;69222;52.242;20.980;2023-08-08T05:30:17;99768.47;;;15.15;62.35
17607;BME280;69222;52.242;20.980;2023-08-08T05:32:45;99770.50;;;15.30;62.74
17607;BME280;69222;52.242;20.980;2023-08-08T05:35:14;99768.16;;;15.48;61.93
17607;BME280;69222;52.242;20.980;2023-08-08T05:37:42;99779.97;;;15.56;60.96
17607;BME280;69222;52.242;20.980;2023-08-08T05:40:10;99760.72;;;15.62;60.29
17607;BME280;69222;52.242;20.980;2023-08-08T05:42:40;99783.00;;;15.69;59.74
17607;BME280;69222;52.242;20.980;2023-08-08T05:45:08;99771.13;;;15.62;60.31
17607;BME280;69222;52.242;20.980;2023-08-08T05:47:36;99793.69;;;15.60;60.52
17607;BME280;69222;52.242;20.980;2023-08-08T05:50:05;99779.84;;;15.59;60.17
17607;BME280;69222;52.242;20.980;2023-08-08T05:52:34;99780.50;;;15.66;61.01
17607;BME280;69222;52.242;20.980;2023-08-08T05:55:02;99787.22;;;15.72;59.87
17607;BME280;69222;52.242;20.980;2023-08-08T05:57:30;99788.25;;;15.67;59.78
17607;BME280;69222;52.242;20.980;2023-08-08T05:59:59;99798.78;;;15.63;60.24
17607;BME280;69222;52.242;20.980;2023-08-08T06:02:29;99791.81;;;15.63;60.39
17607;BME280;69222;52.242;20.980;2023-08-08T06:04:57;99806.50;;;15.64;60.21
17607;BME280;69222;52.242;20.980;2023-08-08T06:07:25;99804.28;;;15.79;59.93
17607;BME280;69222;52.242;20.980;2023-08-08T06:09:53;99790.63;;;15.74;59.53
17607;BME280;69222;52.242;20.980;2023-08-08T06:12:21;99787.75;;;15.81;60.07
17607;BME280;69222;52.242;20.980;2023-08-08T06:14:49;99810.75;;;15.90;59.04
17607;BME280;69222;52.242;20.980;2023-08-08T06:17:19;99804.56;;;15.94;59.05
17607;BME280;69222;52.242;20.980;2023-08-08T06:19:50;99804.44;;;15.98;58.58
17607;BME280;69222;52.242;20.980;2023-08-08T06:22:18;99815.44;;;16.04;58.27
17607;BME280;69222;52.242;20.980;2023-08-08T06:24:49;99812.59;;;15.88;58.66
17607;BME280;69222;52.242;20.980;2023-08-08T06:27:17;99808.34;;;15.86;59.58
17607;BME280;69222;52.242;20.980;2023-08-08T06:29:46;99820.09;;;15.96;58.71
17607;BME280;69222;52.242;20.980;2023-08-08T06:32:14;99817.78;;;15.88;58.97
17607;BME280;69222;52.242;20.980;2023-08-08T06:34:43;99812.63;;;15.87;58.86
17607;BME280;69222;52.242;20.980;2023-08-08T06:37:12;99824.28;;;16.00;59.25
17607;BME280;69222;52.242;20.980;2023-08-08T06:39:40;99822.34;;;16.05;58.59
17607;BME280;69222;52.242;20.980;2023-08-08T06:42:08;99815.00;;;16.38;58.55
17607;BME280;69222;52.242;20.980;2023-08-08T06:44:41;99822.53;;;16.68;56.62
17607;BME280;69222;52.242;20.980;2023-08-08T06:47:09;99826.69;;;16.72;55.62
17607;BME280;69222;52.242;20.980;2023-08-08T06:49:38;99829.88;;;16.57;55.71
17607;BME280;69222;52.242;20.980;2023-08-08T06:52:08;99821.31;;;16.55;56.55
17607;BME280;69222;52.242;20.980;2023-08-08T06:54:36;99834.13;;;16.81;57.84
17607;BME280;69222;52.242;20.980;2023-08-08T06:57:04;99831.03;;;16.94;54.29
17607;BME280;69222;52.242;20.980;2023-08-08T06:59:32;99828.47;;;17.34;53.84
17607;BME280;69222;52.242;20.980;2023-08-08T07:02:00;99828.06;;;17.44;53.31
17607;BME280;69222;52.242;20.980;2023-08-08T07:04:29;99833.69;;;17.94;51.43
17607;BME280;69222;52.242;20.980;2023-08-08T07:06:56;99835.22;;;18.17;51.76
17607;BME280;69222;52.242;20.980;2023-08-08T07:09:26;99817.16;;;18.50;51.61
17607;BME280;69222;52.242;20.980;2023-08-08T07:11:54;99819.00;;;18.85;49.54
17607;BME280;69222;52.242;20.980;2023-08-08T07:14:23;99827.59;;;19.21;48.04
17607;BME280;69222;52.242;20.980;2023-08-08T07:16:51;99814.66;;;19.53;46.96
17607;BME280;69222;52.242;20.980;2023-08-08T07:19:20;99807.38;;;19.42;45.90
17607;BME280;69222;52.242;20.980;2023-08-08T07:21:48;99812.97;;;19.52;46.21
17607;BME280;69222;52.242;20.980;2023-08-08T07:24:16;99823.03;;;19.60;46.33
17607;BME280;69222;52.242;20.980;2023-08-08T07:26:46;99822.81;;;19.64;45.72
17607;BME280;69222;52.242;20.980;2023-08-08T07:29:15;99822.66;;;19.67;46.56
17607;BME280;69222;52.242;20.980;2023-08-08T07:31:43;99825.13;;;19.53;45.84
17607;BME280;69222;52.242;20.980;2023-08-08T07:34:11;99819.47;;;19.27;47.00
17607;BME280;69222;52.242;20.980;2023-08-08T07:36:39;99822.53;;;19.36;47.32
17607;BME280;69222;52.242;20.980;2023-08-08T07:39:07;99834.91;;;19.15;46.19
17607;BME280;69222;52.242;20.980;2023-08-08T07:41:36;99832.97;;;18.83;47.44
17607;BME280;69222;52.242;20.980;2023-08-08T07:44:06;99833.59;;;18.70;47.75
17607;BME280;69222;52.242;20.980;2023-08-08T07:46:34;99839.31;;;18.42;47.67
17607;BME280;69222;52.242;20.980;2023-08-08T07:49:03;99844.53;;;18.04;49.32
17607;BME280;69222;52.242;20.980;2023-08-08T07:51:31;99839.44;;;17.82;49.67
17607;BME280;69222;52.242;20.980;2023-08-08T07:54:00;99844.50;;;17.85;50.51
17607;BME280;69222;52.242;20.980;2023-08-08T07:56:28;99850.59;;;18.04;48.78
17607;BME280;69222;52.242;20.980;2023-08-08T07:58:56;99852.91;;;17.92;49.16
17607;BME280;69222;52.242;20.980;2023-08-08T08:01:25;99848.16;;;17.81;49.36
17607;BME280;69222;52.242;20.980;2023-08-08T08:03:54;99835.44;;;17.73;49.84
17607;BME280;69222;52.242;20.980;2023-08-08T08:06:22;99827.25;;;17.62;49.65
17607;BME280;69222;52.242;20.980;2023-08-08T08:08:52;99831.38;;;17.68;49.06
17607;BME280;69222;52.242;20.980;2023-08-08T08:11:20;99845.94;;;17.92;49.45
17607;BME280;69222;52.242;20.980;2023-08-08T08:13:48;99831.28;;;18.08;49.04
17607;BME280;69222;52.242;20.980;2023-08-08T08:16:16;99827.06;;;18.61;47.56
17607;BME280;69222;52.242;20.980;2023-08-08T08:18:46;99834.16;;;19.30;46.04
17607;BME280;69222;52.242;20.980;2023-08-08T08:21:15;99830.28;;;20.83;41.31
17607;BME280;69222;52.242;20.980;2023-08-08T08:23:44;99824.19;;;21.85;39.91
17607;BME280;69222;52.242;20.980;2023-08-08T08:26:13;99816.34;;;22.41;39.07
17607;BME280;69222;52.242;20.980;2023-08-08T08:28:41;99818.19;;;23.33;35.97
17607;BME280;69222;52.242;20.980;2023-08-08T08:31:09;99815.03;;;23.53;36.07
17607;BME280;69222;52.242;20.980;2023-08-08T08:33:37;99797.09;;;22.67;36.63
17607;BME280;69222;52.242;20.980;2023-08-08T08:36:07;99839.16;;;22.12;38.13
17607;BME280;69222;52.242;20.980;2023-08-08T08:38:37;99829.53;;;21.55;38.83
17607;BME280;69222;52.242;20.980;2023-08-08T08:41:05;99827.13;;;21.22;40.07
17607;BME280;69222;52.242;20.980;2023-08-08T08:43:33;99837.84;;;21.03;40.35
17607;BME280;69222;52.242;20.980;2023-08-08T08:46:02;99833.28;;;20.91;40.47
17607;BME280;69222;52.242;20.980;2023-08-08T08:48:31;99831.88;;;20.55;40.80
17607;BME280;69222;52.242;20.980;2023-08-08T08:50:59;99834.00;;;20.47;42.72
17607;BME280;69222;52.242;20.980;2023-08-08T08:53:28;99832.09;;;20.35;42.78
17607;BME280;69222;52.242;20.980;2023-08-08T08:55:57;99840.16;;;19.83;42.73
17607;BME280;69222;52.242;20.980;2023-08-08T08:58:26;99841.09;;;19.47;43.63
17607;BME280;69222;52.242;20.980;2023-08-08T09:00:56;99851.25;;;19.18;43.96
17607;BME280;69222;52.242;20.980;2023-08-08T09:03:26;99841.88;;;19.14;44.40
17607;BME280;69222;52.242;20.980;2023-08-08T09:05:54;99843.38;;;19.20;44.08
17607;BME280;69222;52.242;20.980;2023-08-08T09:08:23;99837.34;;;19.18;44.61
17607;BME280;69222;52.242;20.980;2023-08-08T09:10:53;99851.44;;;19.15;44.39
17607;BME280;69222;52.242;20.980;2023-08-08T09:13:23;99857.66;;;19.13;44.52
17607;BME280;69222;52.242;20.980;2023-08-08T09:15:53;99861.47;;;19.05;44.25
17607;BME280;69222;52.242;20.980;2023-08-08T09:18:23;99848.94;;;18.95;44.38
17607;BME280;69222;52.242;20.980;2023-08-08T09:20:52;99869.00;;;18.94;44.10
17607;BME280;69222;52.242;20.980;2023-08-08T09:23:20;99836.91;;;19.10;44.02
17607;BME280;69222;52.242;20.980;2023-08-08T09:25:49;99862.00;;;18.95;43.83
17607;BME280;69222;52.242;20.980;2023-08-08T09:28:18;99854.00;;;18.80;44.47
17607;BME280;69222;52.242;20.980;2023-08-08T09:30:46;99860.19;;;19.31;43.87
17607;BME280;69222;52.242;20.980;2023-08-08T09:33:14;99835.84;;;19.82;42.59
17607;BME280;69222;52.242;20.980;2023-08-08T09:35:42;99857.31;;;20.04;41.69
17607;BME280;69222;52.242;20.980;2023-08-08T09:38:12;99853.34;;;20.28;39.80
17607;BME280;69222;52.242;20.980;2023-08-08T09:40:40;99864.72;;;19.96;39.96
17607;BME280;69222;52.242;20.980;2023-08-08T09:43:08;99868.09;;;19.65;40.16
17607;BME280;69222;52.242;20.980;2023-08-08T09:45:38;99861.09;;;19.30;40.41
17607;BME280;69222;52.242;20.980;2023-08-08T09:48:08;99866.91;;;18.83;40.81
17607;BME280;69222;52.242;20.980;2023-08-08T09:50:37;99865.66;;;18.54;41.45
17607;BME280;69222;52.242;20.980;2023-08-08T09:53:06;99863.84;;;18.38;42.04
17607;BME280;69222;52.242;20.980;2023-08-08T09:55:35;99868.66;;;18.28;42.74
17607;BME280;69222;52.242;20.980;2023-08-08T09:58:04;99873.63;;;18.14;43.92
17607;BME280;69222;52.242;20.980;2023-08-08T10:00:33;99876.13;;;18.17;44.14
17607;BME280;69222;52.242;20.980;2023-08-08T10:03:04;99887.25;;;18.20;42.68
17607;BME280;69222;52.242;20.980;2023-08-08T10:05:32;99890.34;;;18.09;42.95
17607;BME280;69222;52.242;20.980;2023-08-08T10:08:01;99864.63;;;18.02;43.54
17607;BME280;69222;52.242;20.980;2023-08-08T10:10:29;99880.69;;;19.04;43.39
17607;BME280;69222;52.242;20.980;2023-08-08T10:12:59;99868.72;;;20.35;38.00
17607;BME280;69222;52.242;20.980;2023-08-08T10:15:27;99858.81;;;21.33;36.15
17607;BME280;69222;52.242;20.980;2023-08-08T10:17:56;99844.25;;;21.86;34.97
17607;BME280;69222;52.242;20.980;2023-08-08T10:20:27;99851.63;;;22.23;33.39
17607;BME280;69222;52.242;20.980;2023-08-08T10:22:55;99875.97;;;21.53;34.79
17607;BME280;69222;52.242;20.980;2023-08-08T10:25:27;99869.69;;;20.49;36.63
17607;BME280;69222;52.242;20.980;2023-08-08T10:28:03;99866.41;;;19.97;38.25
17607;BME280;69222;52.242;20.980;2023-08-08T10:30:52;99864.31;;;20.19;38.21
17607;BME280;69222;52.242;20.980;2023-08-08T10:33:24;99841.44;;;21.31;36.40
17607;BME280;69222;52.242;20.980;2023-08-08T10:36:20;99862.31;;;22.19;34.70
17607;BME280;69222;52.242;20.980;2023-08-08T10:38:49;99858.66;;;22.36;33.37
17607;BME280;69222;52.242;20.980;2023-08-08T10:41:20;99846.81;;;22.71;32.06
17607;BME280;69222;52.242;20.980;2023-08-08T10:43:50;99861.00;;;23.48;30.14
17607;BME280;69222;52.242;20.980;2023-08-08T10:46:27;99863.00;;;23.95;29.04
17607;BME280;69222;52.242;20.980;2023-08-08T10:48:57;99863.06;;;22.90;30.19
17607;BME280;69222;52.242;20.980;2023-08-08T10:51:37;99866.69;;;22.75;31.42
17607;BME280;69222;52.242;20.980;2023-08-08T10:54:09;99845.50;;;23.30;30.75
17607;BME280;69222;52.242;20.980;2023-08-08T10:56:40;99870.69;;;23.34;30.63
17607;BME280;69222;52.242;20.980;2023-08-08T10:59:15;99859.22;;;23.99;29.62
17607;BME280;69222;52.242;20.980;2023-08-08T11:01:49;99865.50;;;24.83;28.67
17607;BME280;69222;52.242;20.980;2023-08-08T11:04:20;99868.38;;;25.50;27.95
17607;BME280;69222;52.242;20.980;2023-08-08T11:06:50;99864.66;;;25.53;27.52
17607;BME280;69222;52.242;20.980;2023-08-08T11:09:21;99858.50;;;25.30;28.06
17607;BME280;69222;52.242;20.980;2023-08-08T11:11:49;99867.28;;;24.22;28.88
17607;BME280;69222;52.242;20.980;2023-08-08T11:14:20;99867.16;;;23.21;30.46
17607;BME280;69222;52.242;20.980;2023-08-08T11:16:50;99870.28;;;23.01;31.56
17607;BME280;69222;52.242;20.980;2023-08-08T11:19:19;99868.88;;;23.35;31.59
17607;BME280;69222;52.242;20.980;2023-08-08T11:21:48;99875.00;;;23.61;30.71
17607;BME280;69222;52.242;20.980;2023-08-08T11:24:18;99877.00;;;24.08;28.97
17607;BME280;69222;52.242;20.980;2023-08-08T11:26:47;99861.09;;;24.10;28.26
17607;BME280;69222;52.242;20.980;2023-08-08T11:29:16;99866.91;;;23.90;28.25
17607;BME280;69222;52.242;20.980;2023-08-08T11:31:44;99869.16;;;23.18;29.38
17607;BME280;69222;52.242;20.980;2023-08-08T11:34:15;99869.94;;;22.65;30.60
17607;BME280;69222;52.242;20.980;2023-08-08T11:36:45;99873.13;;;22.15;30.99
17607;BME280;69222;52.242;20.980;2023-08-08T11:39:14;99877.47;;;21.43;31.21
17607;BME280;69222;52.242;20.980;2023-08-08T11:41:45;99903.28;;;20.89;32.94
17607;BME280;69222;52.242;20.980;2023-08-08T11:44:13;99897.34;;;20.38;33.32
17607;BME280;69222;52.242;20.980;2023-08-08T11:46:45;99876.22;;;20.09;34.12
17607;BME280;69222;52.242;20.980;2023-08-08T11:49:15;99884.84;;;20.11;35.00
17607;BME280;69222;52.242;20.980;2023-08-08T11:51:44;99896.81;;;20.47;35.12
17607;BME280;69222;52.242;20.980;2023-08-08T11:54:13;99890.44;;;20.68;34.03
17607;BME280;69222;52.242;20.980;2023-08-08T11:56:43;99884.66;;;20.93;34.03
17607;BME280;69222;52.242;20.980;2023-08-08T11:59:13;99895.47;;;21.03;32.51
17607;BME280;69222;52.242;20.980;2023-08-08T12:01:44;99890.91;;;20.91;32.60
17607;BME280;69222;52.242;20.980;2023-08-08T12:04:12;99899.41;;;20.64;33.58
17607;BME280;69222;52.242;20.980;2023-08-08T12:06:41;99893.66;;;20.58;33.09
17607;BME280;69222;52.242;20.980;2023-08-08T12:09:11;99881.66;;;20.54;33.52
17607;BME280;69222;52.242;20.980;2023-08-08T12:11:40;99898.41;;;20.51;34.39
17607;BME280;69222;52.242;20.980;2023-08-08T12:14:09;99900.22;;;20.49;34.48
17607;BME280;69222;52.242;20.980;2023-08-08T12:16:38;99907.22;;;20.33;34.73
17607;BME280;69222;52.242;20.980;2023-08-08T12:19:08;99893.78;;;20.07;35.00
17607;BME280;69222;52.242;20.980;2023-08-08T12:21:38;99909.75;;;19.85;33.96
17607;BME280;69222;52.242;20.980;2023-08-08T12:24:07;99904.63;;;19.66;34.70
17607;BME280;69222;52.242;20.980;2023-08-08T12:26:35;99898.75;;;19.61;34.87
17607;BME280;69222;52.242;20.980;2023-08-08T12:29:04;99908.44;;;19.59;35.37
17607;BME280;69222;52.242;20.980;2023-08-08T12:31:32;99898.81;;;19.60;35.96
17607;BME280;69222;52.242;20.980;2023-08-08T12:34:03;99900.59;;;19.59;35.89
17607;BME280;69222;52.242;20.980;2023-08-08T12:36:31;99917.34;;;19.55;35.62
17607;BME280;69222;52.242;20.980;2023-08-08T12:38:59;99901.66;;;19.55;36.05
17607;BME280;69222;52.242;20.980;2023-08-08T12:41:28;99901.81;;;19.69;35.68
17607;BME280;69222;52.242;20.980;2023-08-08T12:43:57;99897.47;;;20.03;34.60
17607;BME280;69222;52.242;20.980;2023-08-08T12:46:25;99894.25;;;20.14;35.08
17607;BME280;69222;52.242;20.980;2023-08-08T12:48:53;99899.84;;;20.23;35.20
17607;BME280;69222;52.242;20.980;2023-08-08T12:51:22;99898.03;;;20.25;35.45
17607;BME280;69222;52.242;20.980;2023-08-08T12:53:50;99902.63;;;20.20;34.08
17607;BME280;69222;52.242;20.980;2023-08-08T12:56:19;99898.25;;;20.21;33.95
17607;BME280;69222;52.242;20.980;2023-08-08T12:58:47;99882.81;;;20.32;33.69